PABR METAR and TAF weather

Enter ICAO airport designator
Station Type Date Time Source
PABR METAR 2020/01/20 18:53 UTC NOAA

PABR 201853Z 20004KT 1 1/4SM R07/5000VP6000FT BR OVC004 M18/M21 A2953 RMK AO2 SLP000 T11831206 $


Station Type Date Time Source
PABR Decoded METAR 2020/01/20 18:53 UTC NOAA

POST ROGERS MEMORIAL AIRPORT, AK, United States (PABR) 71-17N 156-46W 10M
Jan 20, 2020 - 01:53 PM EST / 2020.01.20 1853 UTC
Wind: from the SSW (200 degrees) at 5 MPH (4 KT):0
Visibility: 1 1/4 mile(s):0
Sky conditions: overcast
Weather: mist
Temperature: -0.9 F (-18.3 C)
Windchill: -11 F (-24 C):2
Dew Point: -5.1 F (-20.6 C)
Relative Humidity: 82%
Pressure (altimeter): 29.53 in. Hg (1000 hPa)
ob: PABR 201853Z 20004KT 1 1/4SM R07/5000VP6000FT BR OVC004 M18/M21 A2953 RMK AO2 SLP000 T11831206
cycle: 19

Station Type Date Time Source
PABR TAF 2020/01/20 18:36 UTC NOAA

TAF PABR 201733Z 2018/2118 19006KT 2SM BR OVC004
FM210000 11010KT P6SM BKN009
FM210600 11009KT P6SM FEW100

Example: see airport list